Time;durP1;ratioP1;P1;durP2;ratioP2;P2;SDS_P1;SDS_P2;PMS_P1;PMS_P2;Temp;Humidity;BMP_temperature;BMP_pressure;BME280_temperature;BME280_humidity;BME280_pressure;Samples;Min_cycle;Max_cycle;Signal;HPM_P1;HPM_P2
2023/08/18 00:00:55;;;;;;;;;;;23.70;61.50;;;;;;8497400;27;20398;-51
2023/08/18 00:04:56;;;;;;;;;;;23.60;61.50;;;;;;8496979;27;19911;-49
2023/08/18 00:08:56;;;;;;;;;;;23.70;61.50;;;;;;8497076;27;19914;-51
2023/08/18 00:12:57;;;;;;;;;;;23.70;61.50;;;;;;8497413;27;19918;-50
2023/08/18 00:16:57;;;;;;;;;;;23.70;61.50;;;;;;8496547;27;19923;-51
2023/08/18 00:20:58;;;;;;;;;;;23.70;61.50;;;;;;8512728;27;20291;-50
2023/08/18 00:24:58;;;;;;;;;;;23.70;61.50;;;;;;8496592;27;19911;-51
2023/08/18 00:28:59;;;;;;;;;;;23.70;61.50;;;;;;8496149;27;19911;-49
2023/08/18 00:33:00;;;;;;;;;;;23.70;61.50;;;;;;8495592;27;20428;-50
2023/08/18 00:37:01;;;;;;;;;;;23.70;61.60;;;;;;8495819;27;19927;-49
2023/08/18 00:41:02;;;;;;;;;;;23.70;61.60;;;;;;8495633;27;20372;-49
2023/08/18 00:45:02;;;;;;;;;;;23.70;61.70;;;;;;8496903;27;20397;-49
2023/08/18 00:49:05;;;;;;;;;;;23.70;61.60;;;;;;8507024;27;19908;-52
2023/08/18 00:53:06;;;;;;;;;;;23.70;61.60;;;;;;8496053;27;19914;-49
2023/08/18 00:57:07;;;;;;;;;;;23.70;61.60;;;;;;8495981;27;19970;-50
2023/08/18 01:01:07;;;;;;;;;;;23.70;61.60;;;;;;8495548;27;19912;-48
2023/08/18 01:05:08;;;;;;;;;;;23.70;61.60;;;;;;8495406;27;19912;-49
2023/08/18 01:09:08;;;;;;;;;;;23.70;61.60;;;;;;8495363;27;19911;-49
2023/08/18 01:13:33;;;;;;;;;;;23.70;61.50;;;;;;8495692;27;20006;-49
2023/08/18 01:17:47;;;;;;;;;;;23.70;61.50;;;;;;8487479;27;19927;-49
2023/08/18 01:21:51;;;;;;;;;;;23.70;61.60;;;;;;8498955;27;19935;-50
2023/08/18 01:25:51;;;;;;;;;;;23.70;61.60;;;;;;8494937;27;19943;-51
2023/08/18 01:29:52;;;;;;;;;;;23.70;61.60;;;;;;8494749;27;19915;-49
2023/08/18 01:33:54;;;;;;;;;;;23.70;61.50;;;;;;8495081;27;19917;-51
2023/08/18 01:37:56;;;;;;;;;;;23.70;61.50;;;;;;8494293;28;19911;-50
2023/08/18 01:41:56;;;;;;;;;;;23.70;61.50;;;;;;8494425;28;19956;-49
2023/08/18 01:45:57;;;;;;;;;;;23.70;61.60;;;;;;8497101;27;19908;-49
2023/08/18 01:49:57;;;;;;;;;;;23.70;61.60;;;;;;8483143;27;20368;-49
2023/08/18 01:53:58;;;;;;;;;;;23.70;61.60;;;;;;8501483;27;19945;-49
2023/08/18 01:57:58;;;;;;;;;;;23.70;61.60;;;;;;8501263;27;20273;-49
2023/08/18 02:01:59;;;;;;;;;;;23.70;61.50;;;;;;8501863;27;19911;-49
2023/08/18 02:06:00;;;;;;;;;;;23.60;61.50;;;;;;8501071;27;19956;-50
2023/08/18 02:10:01;;;;;;;;;;;23.70;61.60;;;;;;8500943;27;19971;-50
2023/08/18 02:14:01;;;;;;;;;;;23.70;61.60;;;;;;8500697;27;19947;-51
2023/08/18 02:18:03;;;;;;;;;;;23.60;61.50;;;;;;8500377;27;19959;-49
2023/08/18 02:22:04;;;;;;;;;;;23.70;61.60;;;;;;8500439;27;19908;-50
2023/08/18 02:26:05;;;;;;;;;;;23.60;61.50;;;;;;8500613;27;20044;-51
2023/08/18 02:30:05;;;;;;;;;;;23.70;61.60;;;;;;8481789;27;19919;-49
2023/08/18 02:34:06;;;;;;;;;;;23.70;61.60;;;;;;8500756;27;19919;-49
2023/08/18 02:38:09;;;;;;;;;;;23.70;61.60;;;;;;8499845;27;19963;-48
2023/08/18 02:42:09;;;;;;;;;;;23.70;61.60;;;;;;8500198;27;19911;-51
2023/08/18 02:46:10;;;;;;;;;;;23.70;61.60;;;;;;8499701;27;19912;-51
2023/08/18 02:50:10;;;;;;;;;;;23.70;61.60;;;;;;8499380;27;19964;-49
2023/08/18 02:54:11;;;;;;;;;;;23.70;61.60;;;;;;8500359;27;20056;-49
2023/08/18 02:58:11;;;;;;;;;;;23.70;61.60;;;;;;8498677;27;19940;-49
2023/08/18 03:02:12;;;;;;;;;;;23.70;61.50;;;;;;8499562;27;19912;-49
2023/08/18 03:06:12;;;;;;;;;;;23.70;61.60;;;;;;8498935;27;19914;-50
2023/08/18 03:10:13;;;;;;;;;;;23.70;61.60;;;;;;8498893;27;20006;-51
2023/08/18 03:14:14;;;;;;;;;;;23.70;61.50;;;;;;8498488;27;20058;-49
2023/08/18 03:18:14;;;;;;;;;;;23.70;61.50;;;;;;8498527;27;19959;-50
2023/08/18 03:22:15;;;;;;;;;;;23.70;61.50;;;;;;8498343;27;19915;-51
2023/08/18 03:26:15;;;;;;;;;;;23.70;61.50;;;;;;8498995;27;20018;-49
2023/08/18 03:30:16;;;;;;;;;;;23.60;61.50;;;;;;8498307;27;19918;-51
2023/08/18 03:34:16;;;;;;;;;;;23.60;61.50;;;;;;8498371;27;20395;-49
2023/08/18 03:38:17;;;;;;;;;;;23.70;61.60;;;;;;8497776;27;19923;-49
2023/08/18 03:42:17;;;;;;;;;;;23.70;61.60;;;;;;8498053;27;19911;-48
2023/08/18 03:46:22;;;;;;;;;;;23.70;61.60;;;;;;8497777;27;19911;-51
2023/08/18 03:50:23;;;;;;;;;;;23.60;61.50;;;;;;8497515;27;20279;-49
2023/08/18 03:54:24;;;;;;;;;;;23.60;61.60;;;;;;8498033;27;19912;-48
2023/08/18 03:58:24;;;;;;;;;;;23.70;61.70;;;;;;8478667;27;19922;-50
2023/08/18 04:02:25;;;;;;;;;;;23.60;61.60;;;;;;8497266;27;19994;-50
2023/08/18 04:06:25;;;;;;;;;;;23.60;61.50;;;;;;8497160;27;19984;-49
2023/08/18 04:10:26;;;;;;;;;;;23.60;61.50;;;;;;8496777;27;20372;-51
2023/08/18 04:14:26;;;;;;;;;;;23.60;61.50;;;;;;8496871;27;19912;-51
2023/08/18 04:18:27;;;;;;;;;;;23.60;61.50;;;;;;8496322;27;20495;-50
2023/08/18 04:22:28;;;;;;;;;;;23.60;61.50;;;;;;8496644;27;19911;-48
2023/08/18 04:26:29;;;;;;;;;;;23.60;61.50;;;;;;8478547;27;19916;-51
2023/08/18 04:30:29;;;;;;;;;;;23.60;61.50;;;;;;8496053;27;20356;-49
2023/08/18 04:34:30;;;;;;;;;;;23.60;61.50;;;;;;8496100;27;20396;-49
2023/08/18 04:38:31;;;;;;;;;;;23.60;61.50;;;;;;8496125;27;19984;-50
2023/08/18 04:42:31;;;;;;;;;;;23.60;61.50;;;;;;8496021;27;19911;-50
2023/08/18 04:46:32;;;;;;;;;;;23.60;61.50;;;;;;8477269;27;20293;-51
2023/08/18 04:50:32;;;;;;;;;;;23.70;61.60;;;;;;8495838;27;20012;-51
2023/08/18 04:54:33;;;;;;;;;;;23.60;61.50;;;;;;8495842;27;19911;-49
2023/08/18 04:58:33;;;;;;;;;;;23.60;61.50;;;;;;8495487;27;20376;-49
2023/08/18 05:02:34;;;;;;;;;;;23.60;61.50;;;;;;8495318;27;20388;-51
2023/08/18 05:06:35;;;;;;;;;;;23.70;61.60;;;;;;8495195;27;20388;-49
2023/08/18 05:10:35;;;;;;;;;;;23.60;61.50;;;;;;8495281;27;20554;-50
2023/08/18 05:14:36;;;;;;;;;;;23.60;61.50;;;;;;8494951;27;20424;-49
2023/08/18 05:18:36;;;;;;;;;;;23.60;61.50;;;;;;8494698;27;20533;-51
2023/08/18 05:22:37;;;;;;;;;;;23.60;61.50;;;;;;8494129;27;19908;-49
2023/08/18 05:26:37;;;;;;;;;;;23.60;61.50;;;;;;8494833;27;19912;-50
2023/08/18 05:30:38;;;;;;;;;;;23.60;61.50;;;;;;8494759;27;19964;-51
2023/08/18 05:34:38;;;;;;;;;;;23.60;61.60;;;;;;8476284;27;19941;-49
2023/08/18 05:38:39;;;;;;;;;;;23.60;61.60;;;;;;8494428;28;19915;-49
2023/08/18 05:42:39;;;;;;;;;;;23.60;61.60;;;;;;8494530;28;20650;-51
2023/08/18 05:46:40;;;;;;;;;;;23.60;61.60;;;;;;8494394;28;19918;-51
2023/08/18 05:50:41;;;;;;;;;;;23.60;61.50;;;;;;8494447;28;19915;-51
2023/08/18 05:54:42;;;;;;;;;;;23.60;61.50;;;;;;8494477;27;19915;-50
2023/08/18 05:58:42;;;;;;;;;;;23.60;61.50;;;;;;8494095;28;19923;-48
2023/08/18 06:02:43;;;;;;;;;;;23.60;61.50;;;;;;8494242;28;20002;-49
2023/08/18 06:06:43;;;;;;;;;;;23.60;61.50;;;;;;8494154;28;19908;-50
2023/08/18 06:10:45;;;;;;;;;;;23.60;61.50;;;;;;8493956;28;19911;-51
2023/08/18 06:14:46;;;;;;;;;;;23.60;61.50;;;;;;8493950;28;20387;-50
2023/08/18 06:18:46;;;;;;;;;;;23.60;61.50;;;;;;8493616;28;20284;-49
2023/08/18 06:22:47;;;;;;;;;;;23.60;61.50;;;;;;8493800;28;19959;-49
2023/08/18 06:26:47;;;;;;;;;;;23.60;61.50;;;;;;8494032;27;19961;-51
2023/08/18 06:30:48;;;;;;;;;;;23.60;61.40;;;;;;8494541;27;19943;-50
2023/08/18 06:34:52;;;;;;;;;;;23.60;61.50;;;;;;8499957;27;19923;-50
2023/08/18 06:38:52;;;;;;;;;;;23.60;61.40;;;;;;8499911;27;19911;-50
2023/08/18 06:42:53;;;;;;;;;;;23.60;61.40;;;;;;8499810;27;19918;-50
2023/08/18 06:46:53;;;;;;;;;;;23.60;61.40;;;;;;8499925;27;20003;-49
2023/08/18 06:50:54;;;;;;;;;;;23.60;61.40;;;;;;8499677;27;19911;-49
2023/08/18 06:54:54;;;;;;;;;;;23.60;61.40;;;;;;8499785;27;19912;-51
2023/08/18 06:58:55;;;;;;;;;;;23.60;61.50;;;;;;8499373;27;19916;-50
2023/08/18 07:02:56;;;;;;;;;;;23.60;61.50;;;;;;8499132;27;20455;-49
2023/08/18 07:06:56;;;;;;;;;;;23.60;61.50;;;;;;8480829;27;19911;-49
2023/08/18 07:10:57;;;;;;;;;;;23.60;61.50;;;;;;8498805;27;19907;-49
2023/08/18 07:14:58;;;;;;;;;;;23.60;61.50;;;;;;8498567;27;19911;-50
2023/08/18 07:18:58;;;;;;;;;;;23.60;61.50;;;;;;8498655;27;19915;-51
2023/08/18 07:22:59;;;;;;;;;;;23.60;61.50;;;;;;8514635;27;19916;-49
2023/08/18 07:26:59;;;;;;;;;;;23.60;61.40;;;;;;8498534;27;19912;-50
2023/08/18 07:31:03;;;;;;;;;;;23.60;61.40;;;;;;8498377;27;19911;-49
2023/08/18 07:35:08;;;;;;;;;;;23.60;61.40;;;;;;8498104;27;20071;-52
2023/08/18 07:39:12;;;;;;;;;;;23.60;61.40;;;;;;8497760;27;20487;-49
2023/08/18 07:43:12;;;;;;;;;;;23.60;61.40;;;;;;8497414;27;19916;-51
2023/08/18 07:47:13;;;;;;;;;;;23.60;61.40;;;;;;8497862;27;19911;-49
2023/08/18 07:51:13;;;;;;;;;;;23.60;61.40;;;;;;8497568;27;19908;-50
2023/08/18 07:55:14;;;;;;;;;;;23.60;61.40;;;;;;8497885;27;19917;-50
2023/08/18 07:59:14;;;;;;;;;;;23.70;61.50;;;;;;8497204;27;20351;-52
2023/08/18 08:03:15;;;;;;;;;;;23.70;61.50;;;;;;8497337;27;19918;-51
2023/08/18 08:07:16;;;;;;;;;;;23.60;61.40;;;;;;8497093;27;20311;-49
2023/08/18 08:11:16;;;;;;;;;;;23.60;61.40;;;;;;8496812;27;19918;-48
2023/08/18 08:15:17;;;;;;;;;;;23.60;61.40;;;;;;8497357;27;19979;-51
2023/08/18 08:19:17;;;;;;;;;;;23.70;61.50;;;;;;8496483;27;19911;-50
2023/08/18 08:23:18;;;;;;;;;;;23.60;61.40;;;;;;8495080;27;20041;-50
2023/08/18 08:27:18;;;;;;;;;;;23.60;61.40;;;;;;8497675;27;19918;-49
2023/08/18 08:31:19;;;;;;;;;;;23.60;61.40;;;;;;8496309;27;19912;-48
2023/08/18 08:35:20;;;;;;;;;;;23.60;61.40;;;;;;8496624;27;19918;-49
2023/08/18 08:39:20;;;;;;;;;;;23.60;61.50;;;;;;8496363;27;19922;-49
2023/08/18 08:43:21;;;;;;;;;;;23.60;61.50;;;;;;8496095;27;19930;-49
2023/08/18 08:47:22;;;;;;;;;;;23.60;61.50;;;;;;8495559;27;19916;-49
2023/08/18 08:51:27;;;;;;;;;;;23.60;61.50;;;;;;8495646;27;19912;-51
2023/08/18 08:55:31;;;;;;;;;;;23.60;61.50;;;;;;8494995;27;19990;-49
2023/08/18 08:59:31;;;;;;;;;;;23.60;61.50;;;;;;8495601;27;20419;-49
2023/08/18 09:03:33;;;;;;;;;;;23.60;61.50;;;;;;8495468;27;20258;-49
2023/08/18 09:07:33;;;;;;;;;;;23.60;61.50;;;;;;8495396;27;19953;-51
2023/08/18 09:11:46;;;;;;;;;;;23.60;61.40;;;;;;8495232;27;20002;-48
2023/08/18 09:15:47;;;;;;;;;;;23.60;61.50;;;;;;8497975;27;19930;-50
2023/08/18 09:19:49;;;;;;;;;;;23.60;61.50;;;;;;8497910;27;19998;-51
2023/08/18 09:23:56;;;;;;;;;;;23.60;61.40;;;;;;8478188;27;19956;-51
2023/08/18 09:27:56;;;;;;;;;;;23.60;61.40;;;;;;8480094;27;19915;-49
2023/08/18 09:31:57;;;;;;;;;;;23.60;61.40;;;;;;8496399;27;19918;-50
2023/08/18 09:35:58;;;;;;;;;;;23.60;61.40;;;;;;8497137;27;19908;-49
2023/08/18 09:40:00;;;;;;;;;;;23.70;61.40;;;;;;8496722;27;19912;-49
2023/08/18 09:44:01;;;;;;;;;;;23.60;61.40;;;;;;8496757;28;20011;-51
2023/08/18 09:48:02;;;;;;;;;;;23.60;61.40;;;;;;8496940;28;19916;-51
2023/08/18 09:52:04;;;;;;;;;;;23.70;61.40;;;;;;8496504;28;19915;-49
2023/08/18 09:56:14;;;;;;;;;;;23.70;61.40;;;;;;8496543;27;19914;-50
2023/08/18 10:00:15;;;;;;;;;;;23.70;61.40;;;;;;8494839;28;20275;-52
2023/08/18 10:04:16;;;;;;;;;;;23.70;61.50;;;;;;8496522;28;19933;-50
2023/08/18 10:08:17;;;;;;;;;;;23.60;61.40;;;;;;8500814;27;19915;-51
2023/08/18 10:12:17;;;;;;;;;;;23.60;61.40;;;;;;8485639;27;20006;-50
2023/08/18 10:16:18;;;;;;;;;;;23.60;61.50;;;;;;8502507;27;19927;-52
2023/08/18 10:20:18;;;;;;;;;;;23.60;61.50;;;;;;8502454;27;19915;-49
2023/08/18 10:24:19;;;;;;;;;;;23.60;61.50;;;;;;8503999;27;19912;-49
2023/08/18 10:28:20;;;;;;;;;;;23.60;61.50;;;;;;8501859;27;19911;-49
2023/08/18 10:32:22;;;;;;;;;;;23.60;61.50;;;;;;8502693;27;19907;-51
2023/08/18 10:36:26;;;;;;;;;;;23.60;61.40;;;;;;8501295;27;19907;-49
2023/08/18 10:40:30;;;;;;;;;;;23.60;61.50;;;;;;8502497;27;19911;-51
2023/08/18 10:44:30;;;;;;;;;;;23.60;61.40;;;;;;8500965;27;19915;-49
2023/08/18 10:48:34;;;;;;;;;;;23.60;61.40;;;;;;8502757;27;19912;-50
2023/08/18 10:52:35;;;;;;;;;;;23.60;61.40;;;;;;8483190;27;19912;-49
2023/08/18 10:56:36;;;;;;;;;;;23.60;61.40;;;;;;8501945;27;19915;-52
2023/08/18 11:00:37;;;;;;;;;;;23.60;61.40;;;;;;8483262;27;19922;-50
2023/08/18 11:04:37;;;;;;;;;;;23.60;61.40;;;;;;8500862;27;19907;-50
2023/08/18 11:08:38;;;;;;;;;;;23.70;61.50;;;;;;8483095;27;19983;-49
2023/08/18 11:12:40;;;;;;;;;;;23.60;61.30;;;;;;8500110;27;19964;-52
2023/08/18 11:16:42;;;;;;;;;;;23.60;61.30;;;;;;8501237;27;19919;-50
2023/08/18 11:20:43;;;;;;;;;;;23.70;61.40;;;;;;8499627;27;20014;-50
2023/08/18 11:24:43;;;;;;;;;;;23.70;61.40;;;;;;8501352;27;19932;-49
2023/08/18 11:28:45;;;;;;;;;;;23.60;61.30;;;;;;8500122;27;19911;-51
2023/08/18 11:32:45;;;;;;;;;;;23.70;61.40;;;;;;8500523;27;19937;-49
2023/08/18 11:36:46;;;;;;;;;;;23.70;61.40;;;;;;8499961;27;19912;-49
2023/08/18 11:40:47;;;;;;;;;;;23.70;61.40;;;;;;8499866;27;19908;-49
2023/08/18 11:44:51;;;;;;;;;;;23.70;61.40;;;;;;8500581;27;20425;-49
2023/08/18 11:48:52;;;;;;;;;;;23.70;61.30;;;;;;8498920;27;19960;-50
2023/08/18 11:52:52;;;;;;;;;;;23.70;61.40;;;;;;8500417;27;19908;-49
2023/08/18 11:56:53;;;;;;;;;;;23.70;61.40;;;;;;8499115;27;20372;-50
2023/08/18 12:00:53;;;;;;;;;;;23.70;61.40;;;;;;8500038;27;19963;-49
2023/08/18 12:04:56;;;;;;;;;;;23.70;61.50;;;;;;8498740;27;19912;-50
2023/08/18 12:08:56;;;;;;;;;;;23.70;61.40;;;;;;8499577;27;19911;-52
2023/08/18 12:12:57;;;;;;;;;;;23.70;61.40;;;;;;8498651;27;19911;-50
2023/08/18 12:16:57;;;;;;;;;;;23.60;61.30;;;;;;8498572;27;20010;-51
2023/08/18 12:20:58;;;;;;;;;;;23.60;61.30;;;;;;8499262;27;19911;-50
2023/08/18 12:24:59;;;;;;;;;;;23.70;61.30;;;;;;8498229;27;19918;-48
2023/08/18 12:29:00;;;;;;;;;;;23.70;61.40;;;;;;8498888;27;19934;-50
2023/08/18 12:33:01;;;;;;;;;;;23.70;61.30;;;;;;8497622;27;19907;-51
2023/08/18 12:37:01;;;;;;;;;;;23.70;61.30;;;;;;8498634;27;20076;-50
2023/08/18 12:41:03;;;;;;;;;;;23.70;61.30;;;;;;8497292;27;19977;-51
2023/08/18 12:45:04;;;;;;;;;;;23.70;61.30;;;;;;8498499;27;20412;-51
2023/08/18 12:49:05;;;;;;;;;;;23.70;61.20;;;;;;8497081;27;20357;-52
2023/08/18 12:53:06;;;;;;;;;;;23.70;61.20;;;;;;8514211;27;19919;-51
2023/08/18 12:57:07;;;;;;;;;;;23.70;61.20;;;;;;8497497;27;19917;-51
2023/08/18 13:01:09;;;;;;;;;;;23.70;61.10;;;;;;8497437;27;20284;-49
2023/08/18 13:05:10;;;;;;;;;;;23.70;61.10;;;;;;8498262;27;19914;-51
2023/08/18 13:09:10;;;;;;;;;;;23.70;61.10;;;;;;8496412;27;19912;-49
2023/08/18 13:13:11;;;;;;;;;;;23.70;61.10;;;;;;8497887;27;19918;-51
2023/08/18 13:17:12;;;;;;;;;;;23.70;61.10;;;;;;8495810;27;19928;-48
2023/08/18 13:21:13;;;;;;;;;;;23.70;61.10;;;;;;8497535;27;19929;-50
2023/08/18 13:25:14;;;;;;;;;;;23.70;61.10;;;;;;8496320;27;20249;-50
2023/08/18 13:29:15;;;;;;;;;;;23.70;61.10;;;;;;8497159;27;19957;-50
2023/08/18 13:33:16;;;;;;;;;;;23.70;61.00;;;;;;8496330;27;20420;-48
2023/08/18 13:37:16;;;;;;;;;;;23.70;61.10;;;;;;8497525;27;19950;-51
2023/08/18 13:41:17;;;;;;;;;;;23.70;61.00;;;;;;8495682;27;19908;-50
2023/08/18 13:45:18;;;;;;;;;;;23.70;61.10;;;;;;8496388;28;20299;-51
2023/08/18 13:49:18;;;;;;;;;;;23.70;61.10;;;;;;8497844;28;20356;-51
2023/08/18 13:53:19;;;;;;;;;;;23.80;61.10;;;;;;8495522;28;20011;-49
2023/08/18 13:57:19;;;;;;;;;;;23.70;61.00;;;;;;8497658;27;19918;-50
2023/08/18 14:01:20;;;;;;;;;;;23.70;61.00;;;;;;8495394;28;19919;-51
2023/08/18 14:05:20;;;;;;;;;;;23.70;61.00;;;;;;8496512;28;19922;-51
2023/08/18 14:09:22;;;;;;;;;;;23.70;61.00;;;;;;8495232;28;20269;-49
2023/08/18 14:13:23;;;;;;;;;;;23.80;61.00;;;;;;8496395;28;19916;-51
2023/08/18 14:17:41;;;;;;;;;;;23.80;61.00;;;;;;8495545;28;19924;-49
2023/08/18 14:21:44;;;;;;;;;;;23.70;61.00;;;;;;8496105;28;20610;-52
2023/08/18 14:25:44;;;;;;;;;;;23.70;60.90;;;;;;8478498;27;19957;-49
2023/08/18 14:29:45;;;;;;;;;;;23.80;61.00;;;;;;8494993;28;19912;-50
2023/08/18 14:33:45;;;;;;;;;;;23.80;61.00;;;;;;8496303;28;19918;-49
2023/08/18 14:37:46;;;;;;;;;;;23.70;60.90;;;;;;8494605;28;19950;-51
2023/08/18 14:41:46;;;;;;;;;;;23.80;61.00;;;;;;8495562;28;19919;-51
2023/08/18 14:45:47;;;;;;;;;;;23.80;61.00;;;;;;8494556;28;19973;-49
2023/08/18 14:49:47;;;;;;;;;;;23.80;61.00;;;;;;8495141;28;19933;-49
2023/08/18 14:53:48;;;;;;;;;;;23.80;61.00;;;;;;8497891;27;19950;-49
2023/08/18 14:57:48;;;;;;;;;;;23.70;60.80;;;;;;8502026;27;19915;-49
2023/08/18 15:01:49;;;;;;;;;;;23.80;61.00;;;;;;8502010;27;19907;-50
2023/08/18 15:05:49;;;;;;;;;;;23.80;60.90;;;;;;8500504;27;20420;-51
2023/08/18 15:09:50;;;;;;;;;;;23.70;60.90;;;;;;8501720;27;19934;-51
2023/08/18 15:13:51;;;;;;;;;;;23.80;61.00;;;;;;8500226;27;19945;-51
2023/08/18 15:17:52;;;;;;;;;;;23.80;61.00;;;;;;8500957;27;19924;-51
2023/08/18 15:21:52;;;;;;;;;;;23.80;61.00;;;;;;8499734;27;19922;-49
2023/08/18 15:25:53;;;;;;;;;;;23.80;61.00;;;;;;8500466;27;19911;-50
2023/08/18 15:29:53;;;;;;;;;;;23.70;60.90;;;;;;8499406;27;19980;-49
2023/08/18 15:33:54;;;;;;;;;;;23.80;61.00;;;;;;8501067;27;19912;-51
2023/08/18 15:37:54;;;;;;;;;;;23.80;61.00;;;;;;8500079;27;19915;-49
2023/08/18 15:41:55;;;;;;;;;;;23.80;61.00;;;;;;8500215;27;19911;-51
2023/08/18 15:45:55;;;;;;;;;;;23.80;61.00;;;;;;8500549;27;19907;-52
2023/08/18 15:49:56;;;;;;;;;;;23.80;61.00;;;;;;8499025;27;19908;-51
2023/08/18 15:53:56;;;;;;;;;;;23.80;61.00;;;;;;8500310;27;19965;-50
2023/08/18 15:57:57;;;;;;;;;;;23.80;61.00;;;;;;8499462;27;19920;-49
2023/08/18 16:01:58;;;;;;;;;;;23.80;61.00;;;;;;8500164;27;19912;-49
2023/08/18 16:06:05;;;;;;;;;;;23.80;61.00;;;;;;8498166;27;19911;-50
2023/08/18 16:10:06;;;;;;;;;;;23.80;61.00;;;;;;8515904;27;19959;-49
2023/08/18 16:14:08;;;;;;;;;;;23.80;61.70;;;;;;8498615;27;19907;-51
2023/08/18 16:18:08;;;;;;;;;;;23.80;61.00;;;;;;8498727;27;19964;-49
2023/08/18 16:22:09;;;;;;;;;;;23.80;61.00;;;;;;8499049;27;19908;-49
2023/08/18 16:26:09;;;;;;;;;;;23.80;61.00;;;;;;8499182;27;19918;-48
2023/08/18 16:30:10;;;;;;;;;;;23.80;61.00;;;;;;8499356;27;20392;-50
2023/08/18 16:34:10;;;;;;;;;;;23.80;61.80;;;;;;8497563;27;19911;-49
2023/08/18 16:38:11;;;;;;;;;;;23.80;61.00;;;;;;8480803;27;19915;-50
2023/08/18 16:42:12;;;;;;;;;;;23.80;61.00;;;;;;8497498;27;20088;-49
2023/08/18 16:46:12;;;;;;;;;;;23.80;61.00;;;;;;8498449;27;20356;-49
2023/08/18 16:50:13;;;;;;;;;;;23.80;61.00;;;;;;8497221;27;19908;-50
2023/08/18 16:54:14;;;;;;;;;;;23.70;60.90;;;;;;8498375;27;19911;-51
2023/08/18 16:58:14;;;;;;;;;;;23.80;61.00;;;;;;8479272;27;19995;-47
2023/08/18 17:02:15;;;;;;;;;;;23.70;61.00;;;;;;8497673;27;19960;-49
2023/08/18 17:06:15;;;;;;;;;;;23.80;61.00;;;;;;8497159;27;19963;-48
2023/08/18 17:10:16;;;;;;;;;;;23.70;60.90;;;;;;8497711;27;19911;-50
2023/08/18 17:14:19;;;;;;;;;;;23.80;61.00;;;;;;8498232;27;20372;-49
2023/08/18 17:18:23;;;;;;;;;;;23.70;60.90;;;;;;8495444;27;19924;-49
2023/08/18 17:22:23;;;;;;;;;;;23.70;60.90;;;;;;8497692;27;19912;-49
2023/08/18 17:26:24;;;;;;;;;;;23.70;60.90;;;;;;8513953;27;19911;-49
2023/08/18 17:30:24;;;;;;;;;;;23.80;61.00;;;;;;8532399;27;20295;-50
2023/08/18 17:34:25;;;;;;;;;;;23.80;61.00;;;;;;8530715;27;19922;-51
2023/08/18 17:38:25;;;;;;;;;;;23.80;61.00;;;;;;8532052;27;19923;-50
2023/08/18 17:42:26;;;;;;;;;;;23.80;61.00;;;;;;8531073;27;20334;-52
2023/08/18 17:46:27;;;;;;;;;;;23.80;61.00;;;;;;8531528;27;19916;-51
2023/08/18 17:50:27;;;;;;;;;;;23.80;61.00;;;;;;8531041;27;20007;-51
2023/08/18 17:54:28;;;;;;;;;;;23.80;61.00;;;;;;8529540;27;19915;-52
2023/08/18 17:58:28;;;;;;;;;;;23.80;61.00;;;;;;8496721;28;19916;-50
2023/08/18 18:02:31;;;;;;;;;;;23.80;61.00;;;;;;8495665;28;20577;-50
2023/08/18 18:06:31;;;;;;;;;;;23.80;61.00;;;;;;8496925;28;19918;-50
2023/08/18 18:10:32;;;;;;;;;;;23.70;60.90;;;;;;8495527;28;19907;-49
2023/08/18 18:14:33;;;;;;;;;;;23.80;61.00;;;;;;8496612;28;20002;-51
2023/08/18 18:18:33;;;;;;;;;;;23.80;61.00;;;;;;8495037;28;20372;-49
2023/08/18 18:22:34;;;;;;;;;;;23.80;61.00;;;;;;8496793;28;19919;-51
2023/08/18 18:26:34;;;;;;;;;;;23.80;61.00;;;;;;8478013;27;19946;-51
2023/08/18 18:30:35;;;;;;;;;;;23.80;61.00;;;;;;8502332;27;19917;-49
2023/08/18 18:34:35;;;;;;;;;;;23.80;61.00;;;;;;8502957;27;19916;-50
2023/08/18 18:38:36;;;;;;;;;;;23.70;60.90;;;;;;8501269;27;19922;-51
2023/08/18 18:42:37;;;;;;;;;;;23.70;61.00;;;;;;8502447;27;19922;-50
2023/08/18 18:46:37;;;;;;;;;;;23.70;61.00;;;;;;8501223;27;19960;-50
2023/08/18 18:50:38;;;;;;;;;;;23.70;61.00;;;;;;8502479;27;20601;-50
2023/08/18 18:54:38;;;;;;;;;;;23.70;61.00;;;;;;8501571;27;19907;-49
2023/08/18 18:58:39;;;;;;;;;;;23.80;61.10;;;;;;8501832;27;20578;-50
2023/08/18 19:02:40;;;;;;;;;;;23.70;61.00;;;;;;8482104;27;19918;-51
2023/08/18 19:06:42;;;;;;;;;;;23.70;61.00;;;;;;8501723;27;20395;-49
2023/08/18 19:10:42;;;;;;;;;;;23.80;61.10;;;;;;8500985;27;19911;-50
2023/08/18 19:14:44;;;;;;;;;;;23.70;61.00;;;;;;8516812;27;19921;-49
2023/08/18 19:18:45;;;;;;;;;;;23.80;61.80;;;;;;8501177;27;20060;-50
2023/08/18 19:22:46;;;;;;;;;;;23.70;61.00;;;;;;8481504;27;19918;-50
2023/08/18 19:26:46;;;;;;;;;;;23.80;61.10;;;;;;8501386;27;19911;-49
2023/08/18 19:30:47;;;;;;;;;;;23.70;61.00;;;;;;8499736;27;19918;-49
2023/08/18 19:34:47;;;;;;;;;;;23.80;61.00;;;;;;8500932;27;19907;-50
2023/08/18 19:38:48;;;;;;;;;;;23.80;61.00;;;;;;8498451;27;19922;-49
2023/08/18 19:42:48;;;;;;;;;;;23.80;61.00;;;;;;8500536;27;19911;-51
2023/08/18 19:46:49;;;;;;;;;;;23.70;61.00;;;;;;8499908;27;19907;-51
2023/08/18 19:50:53;;;;;;;;;;;23.80;61.00;;;;;;8482007;27;19920;-51
2023/08/18 19:54:53;;;;;;;;;;;23.80;61.10;;;;;;8481400;27;19918;-52
2023/08/18 19:58:54;;;;;;;;;;;23.80;61.00;;;;;;8500403;27;19915;-49
2023/08/18 20:02:55;;;;;;;;;;;23.80;61.00;;;;;;8499977;27;19956;-50
2023/08/18 20:06:55;;;;;;;;;;;23.80;61.00;;;;;;8480062;27;20408;-49
2023/08/18 20:10:56;;;;;;;;;;;23.80;61.00;;;;;;8499086;27;19948;-51
2023/08/18 20:14:56;;;;;;;;;;;23.80;61.00;;;;;;8497897;27;19945;-51
2023/08/18 20:18:57;;;;;;;;;;;23.80;61.10;;;;;;8498494;27;19912;-50
2023/08/18 20:22:57;;;;;;;;;;;23.80;61.10;;;;;;8498195;27;19907;-51
2023/08/18 20:26:58;;;;;;;;;;;23.70;61.00;;;;;;8500091;27;19911;-50
2023/08/18 20:31:03;;;;;;;;;;;23.70;61.00;;;;;;8498206;27;19912;-50
2023/08/18 20:35:04;;;;;;;;;;;23.70;61.00;;;;;;8498346;27;19911;-51
2023/08/18 20:39:04;;;;;;;;;;;23.80;61.10;;;;;;8498519;27;19915;-49
2023/08/18 20:43:05;;;;;;;;;;;23.70;61.10;;;;;;8497504;27;19919;-49
2023/08/18 20:47:05;;;;;;;;;;;23.70;61.10;;;;;;8498381;27;19912;-51
2023/08/18 20:51:06;;;;;;;;;;;23.80;61.10;;;;;;8497076;27;20010;-51
2023/08/18 20:55:07;;;;;;;;;;;23.80;61.10;;;;;;8479797;27;19957;-51
2023/08/18 20:59:07;;;;;;;;;;;23.80;61.10;;;;;;8496257;27;19912;-51
2023/08/18 21:03:08;;;;;;;;;;;23.80;61.10;;;;;;8498299;27;20007;-50
2023/08/18 21:07:08;;;;;;;;;;;23.70;61.10;;;;;;8497088;27;19911;-49
2023/08/18 21:11:09;;;;;;;;;;;23.80;61.10;;;;;;8498019;27;20412;-51
2023/08/18 21:15:10;;;;;;;;;;;23.80;61.10;;;;;;8497065;27;19937;-51
2023/08/18 21:19:10;;;;;;;;;;;23.80;61.10;;;;;;8496702;27;19908;-51
2023/08/18 21:23:11;;;;;;;;;;;23.80;61.10;;;;;;8498534;27;19911;-50
2023/08/18 21:27:14;;;;;;;;;;;23.80;61.00;;;;;;8495885;27;20314;-50
2023/08/18 21:31:15;;;;;;;;;;;23.80;61.10;;;;;;8497410;27;19935;-48
2023/08/18 21:35:15;;;;;;;;;;;23.80;61.10;;;;;;8496314;27;20284;-51
2023/08/18 21:39:16;;;;;;;;;;;23.80;61.10;;;;;;8497275;27;19911;-50
2023/08/18 21:43:16;;;;;;;;;;;23.80;61.00;;;;;;8495768;28;19911;-51
2023/08/18 21:47:17;;;;;;;;;;;23.80;61.10;;;;;;8497493;28;19912;-50
2023/08/18 21:51:17;;;;;;;;;;;23.80;61.00;;;;;;8495907;28;20322;-50
2023/08/18 21:55:18;;;;;;;;;;;23.80;61.10;;;;;;8497216;27;19919;-49
2023/08/18 21:59:18;;;;;;;;;;;23.80;61.00;;;;;;8496501;28;20419;-50
2023/08/18 22:03:19;;;;;;;;;;;23.80;61.10;;;;;;8499912;27;19914;-50
2023/08/18 22:07:20;;;;;;;;;;;23.80;61.10;;;;;;8504065;27;19960;-49
2023/08/18 22:11:20;;;;;;;;;;;23.80;61.10;;;;;;8502917;27;19918;-49
2023/08/18 22:15:21;;;;;;;;;;;23.80;61.10;;;;;;8503582;27;19920;-50
2023/08/18 22:19:22;;;;;;;;;;;23.80;61.10;;;;;;8518004;27;19920;-50
2023/08/18 22:23:22;;;;;;;;;;;23.80;61.10;;;;;;8503468;27;19915;-52
2023/08/18 22:27:23;;;;;;;;;;;23.80;61.10;;;;;;8502091;27;19919;-51
2023/08/18 22:31:23;;;;;;;;;;;23.80;61.10;;;;;;8504150;27;20030;-50
2023/08/18 22:35:24;;;;;;;;;;;23.80;61.10;;;;;;8501824;27;19916;-51
2023/08/18 22:39:24;;;;;;;;;;;23.80;61.10;;;;;;8502776;27;19978;-51
2023/08/18 22:43:25;;;;;;;;;;;23.80;61.10;;;;;;8501987;27;19911;-49
2023/08/18 22:47:27;;;;;;;;;;;23.80;61.20;;;;;;8502121;27;19914;-48
2023/08/18 22:51:27;;;;;;;;;;;23.80;61.30;;;;;;8502262;27;19912;-49
2023/08/18 22:55:28;;;;;;;;;;;23.80;61.20;;;;;;8501308;27;19988;-50
2023/08/18 22:59:28;;;;;;;;;;;23.80;61.30;;;;;;8502375;27;19904;-51
2023/08/18 23:03:29;;;;;;;;;;;23.70;61.20;;;;;;8500562;27;19911;-50
2023/08/18 23:07:30;;;;;;;;;;;23.70;61.20;;;;;;8501901;27;19976;-49
2023/08/18 23:11:30;;;;;;;;;;;23.70;61.20;;;;;;8500293;27;19918;-49
2023/08/18 23:15:33;;;;;;;;;;;23.70;61.10;;;;;;8516240;27;20396;-49
2023/08/18 23:19:33;;;;;;;;;;;23.80;61.30;;;;;;8500374;27;19920;-50